Time;durP1;ratioP1;P1;durP2;ratioP2;P2;SDS_P1;SDS_P2;PMS_P1;PMS_P2;Temp;Humidity;BMP_temperature;BMP_pressure;BME280_temperature;BME280_humidity;BME280_pressure;Samples;Min_cycle;Max_cycle;Signal;HPM_P1;HPM_P2
2022/05/17 00:02:08;;;;;;;4.05;2.08;;;13.50;97.10;;;;;;4999508;28;20041;-56
2022/05/17 00:04:34;;;;;;;5.13;2.03;;;13.50;97.10;;;;;;5009211;28;20477;-57
2022/05/17 00:07:02;;;;;;;6.03;2.10;;;13.50;96.90;;;;;;5000429;28;20125;-56
2022/05/17 00:09:28;;;;;;;7.05;1.70;;;13.50;97.20;;;;;;5010938;28;20026;-57
2022/05/17 00:11:53;;;;;;;6.85;1.58;;;13.50;97.30;;;;;;5008852;28;20030;-57
2022/05/17 00:14:19;;;;;;;6.47;2.03;;;13.50;97.20;;;;;;4997017;28;20033;-58
2022/05/17 00:16:46;;;;;;;4.45;1.50;;;13.40;97.20;;;;;;5001270;28;20033;-57
2022/05/17 00:19:16;;;;;;;3.53;1.30;;;13.50;97.40;;;;;;5012538;28;20069;-58
2022/05/17 00:21:44;;;;;;;5.03;1.40;;;13.50;97.30;;;;;;5010665;28;20114;-58
2022/05/17 00:24:11;;;;;;;11.18;2.08;;;13.50;97.10;;;;;;5011014;28;20120;-57
2022/05/17 00:26:37;;;;;;;6.57;1.20;;;13.50;97.20;;;;;;5009929;28;20081;-56
2022/05/17 00:29:04;;;;;;;5.80;1.30;;;13.40;97.20;;;;;;5011985;28;20034;-57
2022/05/17 00:31:30;;;;;;;4.07;1.33;;;13.30;97.20;;;;;;5011957;28;20038;-57
2022/05/17 00:33:57;;;;;;;7.70;1.33;;;13.20;97.30;;;;;;5011747;28;20026;-58
2022/05/17 00:36:23;;;;;;;6.43;1.55;;;13.20;97.40;;;;;;5011869;28;20041;-54
2022/05/17 00:38:49;;;;;;;9.27;2.00;;;13.20;97.50;;;;;;5013650;28;20113;-55
2022/05/17 00:41:16;;;;;;;10.32;1.50;;;13.20;97.60;;;;;;5010829;28;20061;-55
2022/05/17 00:46:53;;;;;;;5.65;2.22;;;13.00;98.00;;;;;;5010593;28;20115;-57
2022/05/17 00:49:43;;;;;;;7.93;2.67;;;12.90;98.60;;;;;;5011311;28;20056;-54
2022/05/17 00:52:20;;;;;;;7.72;2.63;;;12.90;98.90;;;;;;5005755;28;20037;-54
2022/05/17 00:54:47;;;;;;;6.55;2.70;;;12.80;99.00;;;;;;5009859;28;20053;-54
2022/05/17 00:57:22;;;;;;;6.40;1.90;;;12.80;98.90;;;;;;5011221;28;20057;-54
2022/05/17 00:59:49;;;;;;;5.45;2.13;;;12.70;98.80;;;;;;5009061;28;20030;-55
2022/05/17 01:02:15;;;;;;;5.43;1.63;;;12.70;98.90;;;;;;5003743;28;20068;-55
2022/05/17 01:04:41;;;;;;;9.23;1.50;;;12.60;98.90;;;;;;5009584;28;20064;-54
2022/05/17 01:07:12;;;;;;;10.07;1.80;;;12.60;98.30;;;;;;5011461;28;20026;-53
2022/05/17 01:09:38;;;;;;;6.45;1.73;;;12.60;98.40;;;;;;5003278;28;20137;-52
2022/05/17 01:12:04;;;;;;;8.00;1.92;;;12.60;98.10;;;;;;5009829;28;20486;-52
2022/05/17 01:17:14;;;;;;;9.23;3.10;;;12.50;98.30;;;;;;5009739;28;20083;-52
2022/05/17 01:19:42;;;;;;;7.15;2.80;;;12.50;98.90;;;;;;5009095;28;20112;-54
2022/05/17 01:22:09;;;;;;;9.23;1.55;;;12.40;99.10;;;;;;5010360;28;20083;-54
2022/05/17 01:24:35;;;;;;;8.45;2.58;;;12.50;99.20;;;;;;5008316;28;20073;-54
2022/05/17 01:27:36;;;;;;;10.05;4.28;;;12.40;99.10;;;;;;5010268;28;20061;-54
2022/05/17 01:30:04;;;;;;;10.37;2.37;;;12.40;99.40;;;;;;4995024;28;20115;-54
2022/05/17 01:32:31;;;;;;;9.02;2.10;;;12.50;98.90;;;;;;5008668;28;20095;-55
2022/05/17 01:34:56;;;;;;;8.43;3.03;;;12.40;98.60;;;;;;5001974;28;20483;-54
2022/05/17 01:37:22;;;;;;;7.38;3.13;;;12.50;98.80;;;;;;5006692;28;20052;-55
2022/05/17 01:39:48;;;;;;;10.43;2.28;;;12.60;98.40;;;;;;5009068;28;20037;-55
2022/05/17 01:42:14;;;;;;;6.03;2.40;;;12.60;98.10;;;;;;5010149;28;20485;-56
2022/05/17 01:44:43;;;;;;;3.83;2.30;;;12.60;97.70;;;;;;5002098;28;20044;-54
2022/05/17 01:47:13;;;;;;;6.95;2.53;;;12.60;97.40;;;;;;5010755;28;20026;-54
2022/05/17 01:49:39;;;;;;;4.05;1.95;;;12.60;97.90;;;;;;5008854;28;20029;-55
2022/05/17 01:52:05;;;;;;;7.88;1.95;;;12.50;97.70;;;;;;5010340;28;20034;-55
2022/05/17 01:54:31;;;;;;;12.30;4.00;;;12.40;97.70;;;;;;5003916;28;20033;-55
2022/05/17 01:56:56;;;;;;;10.90;4.00;;;12.30;98.70;;;;;;5010419;28;20052;-55
2022/05/17 01:59:22;;;;;;;11.52;4.22;;;12.20;99.10;;;;;;5010257;28;20018;-55
2022/05/17 02:01:48;;;;;;;9.38;3.97;;;12.20;99.30;;;;;;5008317;28;20083;-54
2022/05/17 02:04:14;;;;;;;12.75;4.88;;;12.20;99.30;;;;;;5009620;28;20026;-53
2022/05/17 02:06:40;;;;;;;9.43;3.85;;;12.10;99.30;;;;;;5006282;28;20030;-55
2022/05/17 02:09:06;;;;;;;8.65;2.67;;;12.00;99.70;;;;;;5010374;28;20065;-54
2022/05/17 02:11:32;;;;;;;8.25;3.28;;;12.00;99.70;;;;;;5007963;28;20076;-54
2022/05/17 02:13:57;;;;;;;9.35;2.80;;;11.90;99.40;;;;;;5009338;28;20433;-54
2022/05/17 02:16:23;;;;;;;7.13;2.97;;;11.80;99.50;;;;;;5009513;28;20022;-56
2022/05/17 02:18:50;;;;;;;7.90;3.38;;;11.90;99.60;;;;;;5008159;28;20076;-55
2022/05/17 02:21:16;;;;;;;10.13;3.70;;;11.90;99.90;;;;;;5009728;28;20042;-56
2022/05/17 02:23:42;;;;;;;11.55;3.72;;;11.80;99.80;;;;;;5008355;28;20152;-55
2022/05/17 02:26:07;;;;;;;18.40;4.68;;;11.80;99.90;;;;;;5009888;28;20120;-56
2022/05/17 02:28:33;;;;;;;9.95;5.03;;;11.70;99.90;;;;;;5006052;28;20038;-55
2022/05/17 02:30:59;;;;;;;15.63;5.78;;;11.70;99.90;;;;;;5009887;28;20553;-55
2022/05/17 02:33:25;;;;;;;9.07;4.95;;;11.60;99.90;;;;;;5003154;28;20117;-54
2022/05/17 02:35:51;;;;;;;9.73;4.97;;;11.50;99.90;;;;;;5008386;28;20034;-55
2022/05/17 02:38:16;;;;;;;8.00;5.10;;;11.40;99.90;;;;;;5009860;28;20017;-55
2022/05/17 02:40:42;;;;;;;9.02;4.10;;;11.40;99.90;;;;;;5008017;28;20038;-54
2022/05/17 02:43:12;;;;;;;9.68;4.82;;;11.50;99.90;;;;;;4998874;28;20385;-54
2022/05/17 02:45:38;;;;;;;8.55;4.70;;;11.50;99.90;;;;;;5008202;28;20468;-54
2022/05/17 02:48:04;;;;;;;6.03;3.42;;;11.60;99.90;;;;;;5010092;28;20080;-54
2022/05/17 02:50:31;;;;;;;6.72;4.25;;;11.50;99.90;;;;;;5009678;28;20030;-53
2022/05/17 02:52:57;;;;;;;9.32;3.97;;;11.60;99.40;;;;;;4998168;28;20019;-54
2022/05/17 02:55:22;;;;;;;8.30;3.97;;;11.60;99.10;;;;;;5009931;28;20045;-53
2022/05/17 02:57:48;;;;;;;7.15;4.00;;;11.60;98.70;;;;;;5007530;28;20473;-58
2022/05/17 03:00:16;;;;;;;9.88;4.05;;;11.50;98.50;;;;;;5009860;28;20489;-55
2022/05/17 03:02:42;;;;;;;9.00;4.90;;;11.40;98.80;;;;;;5007060;28;20557;-53
2022/05/17 03:05:09;;;;;;;11.73;5.32;;;11.30;99.50;;;;;;5009643;28;20069;-54
2022/05/17 03:07:35;;;;;;;7.75;4.07;;;11.30;99.90;;;;;;5007936;28;20065;-53
2022/05/17 03:10:01;;;;;;;8.07;5.05;;;11.30;99.90;;;;;;5009571;28;20082;-53
2022/05/17 03:12:26;;;;;;;10.20;3.85;;;11.30;99.60;;;;;;5011939;28;20036;-53
2022/05/17 03:14:52;;;;;;;8.63;4.65;;;11.30;99.50;;;;;;5011449;28;20125;-55
2022/05/17 03:17:18;;;;;;;9.68;4.57;;;11.20;99.20;;;;;;5013816;28;20026;-56
2022/05/17 03:19:44;;;;;;;9.13;4.50;;;11.20;99.40;;;;;;5011655;28;20462;-56
2022/05/17 03:22:10;;;;;;;7.03;3.88;;;11.30;99.80;;;;;;5011648;28;20026;-55
2022/05/17 03:24:36;;;;;;;9.85;4.35;;;11.30;99.00;;;;;;5007297;28;20371;-54
2022/05/17 03:27:03;;;;;;;8.30;3.72;;;11.30;99.20;;;;;;5011826;28;20180;-56
2022/05/17 03:29:29;;;;;;;9.30;3.75;;;11.30;98.90;;;;;;5013027;28;20076;-55
2022/05/17 03:31:55;;;;;;;13.80;5.28;;;11.30;99.00;;;;;;5011249;28;20436;-55
2022/05/17 03:34:21;;;;;;;14.82;5.78;;;11.20;99.10;;;;;;5013113;28;20061;-54
2022/05/17 03:36:47;;;;;;;10.90;4.75;;;11.40;99.90;;;;;;5010476;28;20123;-56
2022/05/17 03:39:13;;;;;;;7.55;4.18;;;11.30;99.70;;;;;;5013098;28;20065;-54
2022/05/17 03:41:39;;;;;;;10.98;3.75;;;11.40;99.40;;;;;;5011003;28;20025;-54
2022/05/17 03:44:05;;;;;;;12.35;5.18;;;11.30;99.00;;;;;;5010819;28;20048;-55
2022/05/17 03:46:31;;;;;;;9.68;4.28;;;11.30;99.60;;;;;;5012758;28;20036;-54
2022/05/17 03:48:59;;;;;;;10.65;3.55;;;11.30;99.50;;;;;;5012574;28;20390;-54
2022/05/17 03:51:24;;;;;;;11.40;4.28;;;11.30;99.00;;;;;;5011979;28;20366;-56
2022/05/17 03:53:50;;;;;;;8.32;4.25;;;11.30;98.90;;;;;;5011048;28;20037;-54
2022/05/17 03:56:16;;;;;;;6.35;4.32;;;11.30;98.90;;;;;;5012456;28;20381;-54
2022/05/17 03:58:43;;;;;;;11.23;4.90;;;11.30;99.20;;;;;;5010672;28;20457;-51
2022/05/17 04:01:10;;;;;;;9.43;4.90;;;11.30;99.50;;;;;;5011826;28;20077;-55
2022/05/17 04:03:37;;;;;;;7.63;4.57;;;11.30;99.50;;;;;;5010591;28;20026;-55
2022/05/17 04:06:03;;;;;;;10.52;6.00;;;11.40;99.30;;;;;;5012624;28;20030;-56
2022/05/17 04:08:29;;;;;;;7.70;4.72;;;11.50;99.50;;;;;;5012253;28;20029;-54
2022/05/17 04:10:55;;;;;;;7.05;4.53;;;11.40;99.10;;;;;;5009757;28;20037;-55
2022/05/17 04:13:21;;;;;;;12.27;6.15;;;11.30;99.10;;;;;;5011575;28;20026;-55
2022/05/17 04:15:47;;;;;;;12.20;6.10;;;11.30;99.70;;;;;;5010831;28;20034;-55
2022/05/17 04:18:12;;;;;;;10.63;6.68;;;11.40;99.90;;;;;;5012291;28;20022;-55
2022/05/17 04:20:38;;;;;;;12.27;4.35;;;11.40;99.90;;;;;;5008990;28;20092;-52
2022/05/17 04:23:04;;;;;;;10.77;4.88;;;11.40;99.80;;;;;;5010817;28;20167;-54
2022/05/17 04:25:29;;;;;;;6.65;4.07;;;11.40;99.40;;;;;;5011945;28;20026;-52
2022/05/17 04:27:55;;;;;;;12.65;6.60;;;11.40;99.40;;;;;;5009975;28;20034;-55
2022/05/17 04:30:22;;;;;;;10.00;6.22;;;11.40;99.80;;;;;;5011230;28;20034;-54
2022/05/17 04:32:48;;;;;;;11.57;5.75;;;11.50;99.80;;;;;;5009345;28;20054;-54
2022/05/17 04:35:15;;;;;;;13.20;4.25;;;11.50;99.60;;;;;;5012098;28;20080;-53
2022/05/17 04:37:41;;;;;;;7.22;4.53;;;11.50;99.00;;;;;;5010101;28;20076;-56
2022/05/17 04:40:09;;;;;;;10.68;4.78;;;11.50;98.90;;;;;;5011800;28;20033;-55
2022/05/17 04:42:39;;;;;;;16.17;5.63;;;11.50;99.20;;;;;;5005716;28;20450;-55
2022/05/17 04:45:08;;;;;;;15.05;5.93;;;11.50;99.50;;;;;;5011076;28;20030;-55
2022/05/17 04:47:34;;;;;;;9.32;4.85;;;11.60;99.40;;;;;;5009853;28;20381;-55
2022/05/17 04:50:00;;;;;;;9.80;4.93;;;11.60;99.40;;;;;;5011849;28;20045;-53
2022/05/17 04:52:26;;;;;;;9.27;4.80;;;11.60;99.30;;;;;;5008467;28;20065;-52
2022/05/17 04:54:52;;;;;;;9.15;4.95;;;11.60;99.00;;;;;;5003863;28;20029;-54
2022/05/17 04:57:18;;;;;;;9.27;4.72;;;11.60;98.90;;;;;;5010921;28;20030;-53
2022/05/17 04:59:44;;;;;;;8.82;4.97;;;11.60;99.10;;;;;;5003416;28;20035;-54
2022/05/17 05:02:10;;;;;;;9.05;4.97;;;11.60;99.20;;;;;;5010809;28;20501;-54
2022/05/17 05:04:38;;;;;;;7.60;4.32;;;11.70;99.10;;;;;;5009676;28;20022;-53
2022/05/17 05:07:05;;;;;;;9.00;4.80;;;11.60;98.90;;;;;;5011466;28;20493;-53
2022/05/17 05:09:31;;;;;;;11.45;5.15;;;11.70;98.80;;;;;;5009687;28;20029;-54
2022/05/17 05:11:57;;;;;;;7.53;4.93;;;11.80;98.90;;;;;;5011094;28;20552;-53
2022/05/17 05:14:23;;;;;;;11.15;5.18;;;11.80;98.80;;;;;;5010827;28;20029;-52
2022/05/17 05:16:49;;;;;;;8.63;5.32;;;11.70;98.60;;;;;;5009401;28;20029;-52
2022/05/17 05:19:15;;;;;;;11.80;5.35;;;11.80;98.60;;;;;;5010327;28;20022;-56
2022/05/17 05:21:40;;;;;;;9.02;5.32;;;11.90;98.60;;;;;;5009204;28;20037;-55
2022/05/17 05:24:07;;;;;;;7.55;4.70;;;11.90;99.00;;;;;;5011270;28;20033;-54
2022/05/17 05:26:33;;;;;;;13.05;5.72;;;11.90;98.70;;;;;;5008170;28;20220;-54
2022/05/17 05:29:00;;;;;;;7.72;4.28;;;11.90;98.70;;;;;;5009137;28;20026;-55
2022/05/17 05:31:26;;;;;;;6.50;4.97;;;12.00;98.70;;;;;;5010287;28;20048;-53
2022/05/17 05:33:52;;;;;;;4.95;3.75;;;12.00;98.50;;;;;;5009053;28;20034;-54
2022/05/17 05:36:17;;;;;;;7.78;4.15;;;12.00;98.20;;;;;;5010758;28;20551;-56
2022/05/17 05:38:43;;;;;;;11.07;5.35;;;12.00;98.30;;;;;;5007918;28;20022;-55
2022/05/17 05:41:13;;;;;;;5.55;4.15;;;12.00;98.40;;;;;;5009355;28;20022;-55
2022/05/17 05:43:39;;;;;;;7.03;4.25;;;12.00;98.30;;;;;;5006990;28;20141;-55
2022/05/17 05:46:05;;;;;;;10.45;4.60;;;12.10;98.20;;;;;;5010516;28;20034;-53
2022/05/17 05:48:31;;;;;;;7.45;4.70;;;12.10;98.20;;;;;;5010601;28;20026;-55
2022/05/17 05:50:57;;;;;;;6.63;4.68;;;12.10;98.10;;;;;;5010255;28;20038;-54
2022/05/17 05:53:23;;;;;;;6.57;4.53;;;12.20;98.00;;;;;;5005639;28;20041;-55
2022/05/17 05:55:57;;;;;;;8.90;4.78;;;12.20;98.00;;;;;;5004681;28;20026;-53
2022/05/17 05:58:26;;;;;;;7.45;4.38;;;12.30;97.70;;;;;;5016079;28;20026;-50
2022/05/17 06:00:52;;;;;;;6.10;4.80;;;12.30;97.60;;;;;;5007491;28;20080;-54
2022/05/17 06:03:18;;;;;;;6.43;4.32;;;12.20;97.80;;;;;;5009934;28;20362;-52
2022/05/17 06:05:43;;;;;;;14.32;5.65;;;12.20;98.00;;;;;;5011693;28;20033;-54
2022/05/17 06:08:14;;;;;;;6.55;4.88;;;12.30;98.10;;;;;;5010953;28;20045;-54
2022/05/17 06:10:41;;;;;;;7.78;4.50;;;12.40;97.90;;;;;;5007953;28;20405;-56
2022/05/17 06:13:08;;;;;;;9.57;5.22;;;12.50;97.70;;;;;;5006159;28;20165;-55
2022/05/17 06:15:33;;;;;;;10.73;5.05;;;12.50;97.70;;;;;;5001292;28;20030;-55
2022/05/17 06:18:03;;;;;;;11.18;5.18;;;12.50;97.70;;;;;;5012873;28;20030;-54
2022/05/17 06:20:30;;;;;;;7.80;4.88;;;12.50;97.70;;;;;;5017777;28;20026;-54
2022/05/17 06:22:56;;;;;;;11.50;5.80;;;12.60;97.80;;;;;;5017880;28;20029;-55
2022/05/17 06:25:22;;;;;;;15.35;6.78;;;12.60;98.10;;;;;;5011158;28;20208;-56
2022/05/17 06:27:48;;;;;;;10.88;6.65;;;12.70;98.20;;;;;;5008325;28;20029;-55
2022/05/17 06:30:15;;;;;;;10.02;7.18;;;12.80;98.10;;;;;;5010564;28;20034;-52
2022/05/17 06:32:41;;;;;;;12.20;6.63;;;12.90;97.90;;;;;;5007584;28;20057;-56
2022/05/17 06:35:08;;;;;;;16.33;8.25;;;13.00;98.00;;;;;;5016215;28;20026;-59
2022/05/17 06:37:33;;;;;;;18.48;9.52;;;13.00;98.10;;;;;;5012757;28;20044;-54
2022/05/17 06:39:59;;;;;;;13.30;8.55;;;13.00;98.30;;;;;;5019274;28;20029;-54
2022/05/17 06:42:27;;;;;;;15.38;8.25;;;13.10;98.50;;;;;;5008351;28;20057;-54
2022/05/17 06:44:54;;;;;;;17.80;8.68;;;13.10;98.40;;;;;;5006755;28;20088;-54
2022/05/17 06:47:20;;;;;;;11.60;7.40;;;13.20;98.30;;;;;;5012098;28;20072;-55
2022/05/17 06:49:46;;;;;;;13.45;8.20;;;13.30;98.20;;;;;;5006880;28;20083;-54
2022/05/17 06:52:12;;;;;;;17.30;8.80;;;13.30;98.20;;;;;;5009379;28;20034;-55
2022/05/17 06:54:38;;;;;;;15.20;7.93;;;13.40;98.30;;;;;;5006872;28;20029;-53
2022/05/17 06:57:06;;;;;;;12.80;8.45;;;13.50;98.30;;;;;;5012519;28;20073;-56
2022/05/17 06:59:33;;;;;;;11.85;8.07;;;13.50;98.30;;;;;;5007260;28;20030;-55
2022/05/17 07:01:59;;;;;;;13.00;8.23;;;13.60;98.30;;;;;;5008893;28;20374;-55
2022/05/17 07:04:27;;;;;;;14.70;8.07;;;13.70;98.30;;;;;;5012526;28;20417;-55
2022/05/17 07:06:55;;;;;;;11.55;6.95;;;13.80;98.20;;;;;;5010909;28;20034;-54
2022/05/17 07:09:22;;;;;;;17.55;8.40;;;14.00;98.10;;;;;;5014671;28;20054;-56
2022/05/17 07:14:34;;;;;;;12.00;7.55;;;14.20;97.80;;;;;;5006506;28;20049;-55
2022/05/17 07:17:00;;;;;;;12.68;7.68;;;14.20;97.90;;;;;;5012228;28;20123;-54
2022/05/17 07:19:26;;;;;;;13.68;7.50;;;14.30;97.90;;;;;;5008107;28;20501;-54
2022/05/17 07:21:52;;;;;;;13.80;7.85;;;14.40;97.90;;;;;;5003872;28;20037;-55
2022/05/17 07:24:19;;;;;;;13.68;7.82;;;14.60;98.00;;;;;;5008402;28;20030;-55
2022/05/17 07:26:45;;;;;;;13.02;7.30;;;14.70;97.80;;;;;;5004367;28;20030;-55
2022/05/17 07:29:11;;;;;;;16.88;7.40;;;14.80;97.50;;;;;;5008702;28;20025;-56
2022/05/17 07:31:36;;;;;;;18.50;8.40;;;15.00;97.20;;;;;;5002926;28;20053;-52
2022/05/17 07:34:03;;;;;;;10.70;5.95;;;15.20;97.00;;;;;;5013162;28;20041;-55
2022/05/17 07:36:29;;;;;;;10.75;6.03;;;15.40;96.70;;;;;;5012340;28;20405;-55
2022/05/17 07:38:55;;;;;;;11.85;4.80;;;15.60;95.80;;;;;;5013242;28;20133;-54
2022/05/17 07:41:21;;;;;;;11.80;5.78;;;15.80;95.10;;;;;;5006871;28;20030;-54
2022/05/17 07:43:46;;;;;;;9.75;5.35;;;15.90;95.10;;;;;;5010297;28;20052;-55
2022/05/17 07:46:12;;;;;;;12.98;5.45;;;16.00;94.90;;;;;;5009103;28;20049;-55
2022/05/17 07:48:38;;;;;;;5.72;3.03;;;16.10;95.00;;;;;;5010968;28;20428;-55
2022/05/17 07:51:06;;;;;;;9.75;4.18;;;16.10;94.40;;;;;;5015436;28;20076;-55
2022/05/17 07:53:32;;;;;;;10.07;4.97;;;16.30;94.20;;;;;;5017949;28;20102;-54
2022/05/17 07:55:59;;;;;;;11.00;6.03;;;16.40;94.20;;;;;;5012994;28;20477;-57
2022/05/17 07:58:25;;;;;;;10.82;4.20;;;16.40;94.10;;;;;;5018891;28;20040;-55
2022/05/17 08:00:51;;;;;;;7.00;3.60;;;16.60;93.70;;;;;;5006505;28;20053;-57
2022/05/17 08:03:19;;;;;;;7.47;3.55;;;16.70;93.20;;;;;;5026711;28;20089;-55
2022/05/17 08:05:45;;;;;;;7.32;4.10;;;16.80;93.20;;;;;;5015813;28;20057;-54
2022/05/17 08:08:11;;;;;;;11.73;5.18;;;16.90;93.20;;;;;;5020475;28;20061;-57
2022/05/17 08:10:38;;;;;;;13.45;3.30;;;17.00;93.20;;;;;;5020040;28;20040;-56
2022/05/17 08:13:04;;;;;;;8.55;2.92;;;17.10;93.40;;;;;;5021604;28;20156;-55
2022/05/17 08:15:30;;;;;;;4.57;2.00;;;17.20;92.20;;;;;;5020272;28;20363;-56
2022/05/17 08:17:57;;;;;;;4.18;1.80;;;17.30;91.60;;;;;;5015111;28;20117;-57
2022/05/17 08:20:23;;;;;;;7.10;2.30;;;17.40;91.20;;;;;;5016847;28;20481;-54
2022/05/17 08:22:49;;;;;;;4.22;1.70;;;17.40;91.30;;;;;;5015690;28;20090;-55
2022/05/17 08:28:04;;;;;;;7.65;1.70;;;17.70;88.30;;;;;;5021901;28;20060;-55
2022/05/17 08:30:30;;;;;;;5.28;1.40;;;17.90;86.70;;;;;;5014434;28;20042;-54
2022/05/17 08:33:17;;;;;;;7.45;2.08;;;18.00;86.70;;;;;;5009399;28;20398;-56
2022/05/17 08:36:08;;;;;;;5.38;1.75;;;18.00;87.00;;;;;;5016764;28;20067;-57
2022/05/17 08:38:43;;;;;;;6.53;1.38;;;18.20;86.10;;;;;;5013097;28;20117;-58
2022/05/17 08:41:21;;;;;;;5.88;1.40;;;18.30;85.50;;;;;;5023063;28;20474;-55
2022/05/17 08:43:56;;;;;;;6.97;1.63;;;18.30;85.50;;;;;;5008547;28;20072;-55
2022/05/17 08:46:53;;;;;;;8.15;1.95;;;18.40;84.90;;;;;;5016815;28;20025;-55
2022/05/17 08:49:23;;;;;;;6.07;1.30;;;18.60;81.90;;;;;;5017802;28;20096;-57
2022/05/17 08:51:57;;;;;;;4.57;1.65;;;18.60;80.30;;;;;;5003180;28;20030;-55
2022/05/17 08:54:30;;;;;;;11.82;1.77;;;18.60;80.80;;;;;;5006299;28;20080;-56
2022/05/17 08:57:16;;;;;;;6.95;1.52;;;18.70;81.50;;;;;;5017770;28;20424;-55
2022/05/17 08:59:42;;;;;;;6.63;1.85;;;18.70;80.00;;;;;;5008347;28;20038;-57
2022/05/17 09:02:14;;;;;;;7.45;2.25;;;18.80;80.40;;;;;;5005144;28;20393;-55
2022/05/17 09:04:42;;;;;;;;;;;18.80;80.50;;;;;;5008974;28;20112;-56
2022/05/17 09:07:19;;;;;;;8.13;3.03;;;18.90;79.80;;;;;;5013674;28;19960;-56
2022/05/17 09:10:22;;;;;;;16.05;3.15;;;18.80;79.80;;;;;;5019240;28;20065;-56
2022/05/17 09:13:11;;;;;;;4.45;1.88;;;19.00;79.40;;;;;;5010361;28;20046;-57
2022/05/17 09:15:37;;;;;;;9.48;1.88;;;19.00;79.20;;;;;;5010724;28;20042;-54
2022/05/17 09:18:16;;;;;;;6.57;1.88;;;18.90;79.90;;;;;;5016435;28;20033;-56
2022/05/17 09:20:42;;;;;;;12.55;2.47;;;19.10;79.30;;;;;;5009486;28;20026;-56
2022/05/17 09:23:09;;;;;;;7.30;1.92;;;19.30;79.60;;;;;;5021822;28;20147;-57
2022/05/17 09:25:58;;;;;;;3.50;1.70;;;19.30;78.20;;;;;;5014870;28;20045;-57
2022/05/17 09:28:43;;;;;;;12.35;2.83;;;19.30;78.20;;;;;;5002492;28;21524;-56
2022/05/17 09:31:12;;;;;;;8.77;2.10;;;19.50;78.70;;;;;;5018192;28;20034;-54
2022/05/17 09:33:41;;;;;;;6.05;1.80;;;19.60;76.60;;;;;;5013139;28;20084;-56
2022/05/17 09:36:08;;;;;;;5.65;1.67;;;19.50;75.10;;;;;;5017381;28;20030;-56
2022/05/17 09:38:39;;;;;;;7.97;2.22;;;19.60;75.70;;;;;;5010132;28;20021;-56
2022/05/17 09:41:12;;;;;;;5.60;2.15;;;19.60;75.80;;;;;;5009421;28;20065;-56
2022/05/17 09:43:45;;;;;;;7.18;2.80;;;19.70;74.60;;;;;;5021065;28;20108;-57
2022/05/17 09:46:16;;;;;;;7.10;1.67;;;19.90;74.10;;;;;;5018157;28;20446;-57
2022/05/17 09:54:47;;;;;;;8.50;2.65;;;19.90;73.80;;;;;;5012722;28;20032;-58
2022/05/17 09:57:13;;;;;;;5.05;1.90;;;19.90;72.70;;;;;;5003780;28;20045;-58
2022/05/17 09:59:40;;;;;;;6.13;1.90;;;20.00;73.40;;;;;;5009823;28;20572;-56
2022/05/17 10:02:34;;;;;;;4.40;2.13;;;20.20;72.60;;;;;;5017547;28;20029;-57
2022/05/17 10:05:10;;;;;;;5.72;1.60;;;20.20;71.40;;;;;;5011267;28;20033;-55
2022/05/17 10:07:36;;;;;;;5.75;2.10;;;20.50;72.10;;;;;;5016182;28;20053;-56
2022/05/17 10:10:20;;;;;;;11.05;2.20;;;20.60;71.80;;;;;;5015564;28;20445;-55
2022/05/17 10:12:49;;;;;;;8.52;2.63;;;20.70;71.40;;;;;;5018554;28;20030;-54
2022/05/17 10:15:16;;;;;;;8.40;2.40;;;20.80;71.30;;;;;;5016229;28;20484;-56
2022/05/17 10:17:49;;;;;;;10.88;3.22;;;20.80;70.40;;;;;;5011960;28;20034;-57
2022/05/17 10:20:23;;;;;;;5.53;1.80;;;20.60;70.30;;;;;;5020218;28;20580;-57
2022/05/17 10:22:58;;;;;;;5.93;1.95;;;20.60;71.90;;;;;;5013902;28;20030;-54
2022/05/17 10:26:06;;;;;;;7.63;2.55;;;20.60;71.50;;;;;;5016648;28;20037;-56
2022/05/17 10:28:40;;;;;;;6.78;2.10;;;20.80;71.70;;;;;;4995090;28;20533;-58
2022/05/17 10:31:44;;;;;;;7.60;1.80;;;20.90;70.20;;;;;;4985213;28;20049;-55
2022/05/17 10:34:31;;;;;;;7.72;2.45;;;20.80;70.40;;;;;;4999349;28;20060;-55
2022/05/17 10:37:09;;;;;;;6.38;1.88;;;20.70;69.80;;;;;;4988880;28;20038;-56
2022/05/17 10:40:00;;;;;;;5.88;1.60;;;20.90;70.90;;;;;;4987145;28;20053;-56
2022/05/17 10:42:28;;;;;;;7.80;2.08;;;21.00;69.30;;;;;;4985833;28;20124;-56
2022/05/17 10:44:56;;;;;;;7.32;1.70;;;21.00;68.40;;;;;;4993758;28;20061;-56
2022/05/17 10:47:48;;;;;;;10.40;1.90;;;21.10;67.80;;;;;;4987927;28;20053;-56
2022/05/17 10:50:32;;;;;;;8.13;2.35;;;21.20;67.30;;;;;;4991077;28;20545;-55
2022/05/17 10:53:24;;;;;;;4.22;1.65;;;21.50;66.40;;;;;;4996452;28;20038;-57
2022/05/17 10:56:24;;;;;;;5.50;1.10;;;21.70;63.60;;;;;;4994891;28;20035;-57
2022/05/17 10:58:59;;;;;;;3.08;1.00;;;22.10;61.50;;;;;;4996182;28;20046;-55
2022/05/17 11:01:49;;;;;;;5.10;1.02;;;22.60;58.60;;;;;;5015725;28;20034;-56
2022/05/17 11:05:02;;;;;;;5.47;0.90;;;22.80;56.10;;;;;;5007003;28;20026;-56
2022/05/17 11:07:46;;;;;;;4.18;1.10;;;23.20;55.40;;;;;;5020828;28;20041;-56
2022/05/17 11:10:36;;;;;;;5.90;1.00;;;23.40;54.10;;;;;;5004526;28;20040;-56
2022/05/17 11:13:08;;;;;;;5.43;1.40;;;23.80;53.20;;;;;;5004751;28;20121;-55
2022/05/17 11:15:38;;;;;;;6.35;1.13;;;23.70;53.50;;;;;;5006100;28;20037;-54
2022/05/17 11:18:20;;;;;;;7.93;1.38;;;23.70;54.30;;;;;;5008187;28;20034;-56
2022/05/17 11:20:53;;;;;;;3.38;1.20;;;24.10;53.10;;;;;;5019999;28;20544;-58
2022/05/17 11:23:32;;;;;;;3.80;1.17;;;24.50;51.50;;;;;;5015131;28;20108;-56
2022/05/17 11:26:33;;;;;;;9.35;2.30;;;24.60;49.50;;;;;;5009592;28;20029;-55
2022/05/17 11:29:20;;;;;;;4.65;1.85;;;25.20;50.30;;;;;;5002190;28;20040;-54
2022/05/17 11:32:28;;;;;;;2.85;1.20;;;25.50;49.60;;;;;;5015632;28;20174;-56
2022/05/17 11:34:57;;;;;;;5.25;1.02;;;25.50;45.20;;;;;;4990270;28;20034;-57
2022/05/17 11:37:38;;;;;;;3.35;1.33;;;26.10;45.10;;;;;;4994934;28;20046;-57
2022/05/17 11:40:09;;;;;;;5.22;1.60;;;26.30;45.00;;;;;;4990692;28;20049;-57
2022/05/17 11:42:36;;;;;;;2.35;1.35;;;26.80;43.80;;;;;;4987882;28;20035;-55
2022/05/17 11:45:39;;;;;;;3.33;1.02;;;26.90;40.20;;;;;;5001392;28;20108;-56
2022/05/17 11:48:14;;;;;;;4.85;1.30;;;26.00;44.50;;;;;;4997546;28;20558;-56
2022/05/17 11:50:58;;;;;;;5.95;1.50;;;26.10;44.00;;;;;;4995510;28;20045;-56
2022/05/17 11:53:24;;;;;;;3.25;1.20;;;25.90;43.50;;;;;;4994859;28;20077;-56
2022/05/17 11:56:20;;;;;;;5.30;1.08;;;25.90;42.60;;;;;;4990280;28;20042;-57
2022/05/17 11:58:51;;;;;;;3.08;1.08;;;25.90;41.70;;;;;;4995162;28;20038;-56
2022/05/17 12:01:29;;;;;;;6.32;1.30;;;26.40;41.40;;;;;;4995281;28;20084;-57
2022/05/17 12:04:26;;;;;;;6.97;1.10;;;26.40;40.90;;;;;;4990364;28;20052;-56
2022/05/17 12:06:52;;;;;;;6.68;1.38;;;26.40;40.60;;;;;;4988642;28;20073;-56
2022/05/17 12:09:21;;;;;;;4.82;1.08;;;26.60;39.60;;;;;;5016016;28;20041;-55
2022/05/17 12:12:13;;;;;;;3.55;1.10;;;26.80;39.40;;;;;;5013527;28;20073;-55
2022/05/17 12:15:27;;;;;;;6.63;1.65;;;26.80;38.40;;;;;;5020259;28;20380;-54
2022/05/17 12:18:04;;;;;;;7.88;1.92;;;26.30;39.60;;;;;;4988276;28;20065;-58
2022/05/17 12:21:07;;;;;;;9.73;1.10;;;26.40;39.90;;;;;;4996422;28;20133;-57
2022/05/17 12:24:17;;;;;;;4.72;0.93;;;26.20;39.90;;;;;;4993413;28;20039;-55
2022/05/17 12:27:09;;;;;;;8.07;1.58;;;26.50;40.80;;;;;;4990503;28;20030;-56
2022/05/17 12:32:30;;;;;;;6.90;1.67;;;27.00;38.10;;;;;;4990581;28;20137;-56
2022/05/17 12:34:57;;;;;;;3.97;1.48;;;27.20;39.20;;;;;;4987770;28;20136;-56
2022/05/17 12:37:28;;;;;;;5.07;1.40;;;27.40;37.00;;;;;;4989839;28;20030;-55
2022/05/17 12:45:28;;;;;;;10.13;2.55;;;27.50;39.50;;;;;;4992574;28;20402;-56
2022/05/17 12:47:57;;;;;;;7.30;2.40;;;27.50;39.00;;;;;;4995140;28;20776;-56
2022/05/17 12:50:24;;;;;;;6.55;1.55;;;27.50;39.40;;;;;;5019427;28;20026;-55
2022/05/17 12:52:56;;;;;;;7.65;1.55;;;27.40;39.30;;;;;;5010046;28;20073;-56
2022/05/17 12:55:27;;;;;;;11.57;2.15;;;27.60;38.40;;;;;;5019921;28;20026;-56
2022/05/17 12:57:54;;;;;;;7.95;1.77;;;27.80;37.40;;;;;;5003053;28;20073;-56
2022/05/17 13:00:22;;;;;;;14.00;1.98;;;28.00;36.70;;;;;;5014458;28;20018;-55
2022/05/17 13:02:57;;;;;;;7.63;1.45;;;28.40;36.60;;;;;;5012391;28;20041;-55
2022/05/17 13:05:39;;;;;;;13.13;2.35;;;27.80;36.50;;;;;;5014924;28;20026;-55
2022/05/17 13:08:21;;;;;;;5.05;1.25;;;27.70;38.10;;;;;;5014244;28;20069;-55
2022/05/17 13:11:08;;;;;;;7.03;1.77;;;27.70;37.90;;;;;;5007820;28;20496;-57
2022/05/17 13:13:37;;;;;;;5.28;1.35;;;28.30;37.20;;;;;;4996644;28;20053;-56
2022/05/17 13:16:12;;;;;;;2.85;0.93;;;28.90;36.80;;;;;;5006791;28;20498;-57
2022/05/17 13:18:45;;;;;;;5.75;1.63;;;28.00;37.20;;;;;;5022324;28;20041;-56
2022/05/17 13:21:33;;;;;;;6.82;1.85;;;27.60;39.50;;;;;;5004689;28;20389;-57
2022/05/17 13:24:03;;;;;;;7.43;2.03;;;27.30;41.80;;;;;;5014514;28;20080;-55
2022/05/17 13:26:31;;;;;;;5.40;1.67;;;27.40;42.10;;;;;;5015626;28;20109;-57
2022/05/17 13:29:23;;;;;;;6.32;1.67;;;27.80;41.50;;;;;;5014369;28;20057;-55